Time;durP1;ratioP1;P1;durP2;ratioP2;P2;SDS_P1;SDS_P2;PMS_P1;PMS_P2;Temp;Humidity;BMP_temperature;BMP_pressure;BME280_temperature;BME280_humidity;BME280_pressure;Samples;Min_cycle;Max_cycle;Signal;HPM_P1;HPM_P2
2024/03/17 00:02:20;;;;;;;14.35;6.35;;;5.00;99.90;;;;;;5011318;28;20435;-54
2024/03/17 00:04:46;;;;;;;16.77;6.78;;;5.00;99.90;;;;;;5013885;28;20101;-58
2024/03/17 00:07:12;;;;;;;16.95;6.03;;;4.90;99.90;;;;;;5014777;28;20057;-58
2024/03/17 00:09:38;;;;;;;14.30;5.95;;;4.90;99.90;;;;;;5014859;28;20417;-58
2024/03/17 00:12:05;;;;;;;15.82;6.25;;;4.90;99.90;;;;;;5014736;28;20109;-59
2024/03/17 00:14:30;;;;;;;17.23;6.18;;;4.90;99.90;;;;;;5014627;28;20061;-58
2024/03/17 00:16:57;;;;;;;12.70;6.28;;;4.90;99.90;;;;;;5014598;28;20071;-58
2024/03/17 00:19:23;;;;;;;11.68;6.80;;;4.90;99.90;;;;;;5014945;28;20041;-56
2024/03/17 00:21:52;;;;;;;11.38;5.85;;;4.80;99.90;;;;;;5014602;28;20052;-59
2024/03/17 00:24:19;;;;;;;15.00;6.05;;;4.80;99.90;;;;;;5014363;28;20030;-57
2024/03/17 00:26:45;;;;;;;16.00;5.78;;;4.80;99.90;;;;;;5014383;28;20045;-57
2024/03/17 00:29:10;;;;;;;13.35;5.95;;;4.70;99.90;;;;;;5014462;28;20032;-59
2024/03/17 00:31:37;;;;;;;16.20;6.57;;;4.70;99.90;;;;;;5014586;28;20388;-56
2024/03/17 00:34:02;;;;;;;14.70;6.80;;;4.70;99.90;;;;;;5014441;28;20030;-58
2024/03/17 00:36:28;;;;;;;17.95;6.72;;;4.60;99.90;;;;;;5014217;28;20080;-58
2024/03/17 00:38:53;;;;;;;11.43;5.80;;;4.50;99.90;;;;;;5014225;28;20473;-58
2024/03/17 00:41:19;;;;;;;12.43;5.25;;;4.50;99.90;;;;;;5014041;28;20057;-57
2024/03/17 00:43:45;;;;;;;11.40;5.57;;;4.50;99.90;;;;;;5014244;28;20072;-59
2024/03/17 00:46:10;;;;;;;10.18;5.68;;;4.50;99.90;;;;;;5013794;28;20030;-57
2024/03/17 00:48:36;;;;;;;17.33;5.43;;;4.40;99.90;;;;;;5014125;28;20034;-58
2024/03/17 00:51:02;;;;;;;16.48;6.20;;;4.50;99.90;;;;;;5014122;28;20053;-58
2024/03/17 00:53:28;;;;;;;12.40;6.47;;;4.50;99.90;;;;;;5014090;28;20026;-59
2024/03/17 00:55:58;;;;;;;18.55;6.75;;;4.50;99.90;;;;;;5013884;28;20165;-59
2024/03/17 00:58:24;;;;;;;14.98;6.45;;;4.50;99.90;;;;;;5014147;28;20472;-58
2024/03/17 01:00:49;;;;;;;14.02;5.68;;;4.40;99.90;;;;;;5013844;28;20036;-58
2024/03/17 01:03:18;;;;;;;20.38;6.25;;;4.30;99.90;;;;;;5031824;22;20010;-57
2024/03/17 01:05:47;;;;;;;16.45;6.03;;;4.30;99.90;;;;;;5050574;28;20044;-54
2024/03/17 01:08:13;;;;;;;11.95;5.78;;;4.20;99.90;;;;;;5056011;28;20021;-53
2024/03/17 01:10:42;;;;;;;10.48;6.18;;;4.20;99.90;;;;;;5051936;28;20025;-55
2024/03/17 01:13:09;;;;;;;18.10;6.32;;;4.10;99.90;;;;;;5050231;28;20025;-58
2024/03/17 01:15:36;;;;;;;9.32;5.72;;;4.10;99.90;;;;;;5052126;28;20429;-57
2024/03/17 01:18:04;;;;;;;11.98;6.18;;;4.10;99.90;;;;;;5052726;28;20132;-57
2024/03/17 01:20:30;;;;;;;13.85;6.55;;;4.10;99.90;;;;;;5048640;28;20483;-54
2024/03/17 01:22:55;;;;;;;17.85;7.50;;;4.00;99.90;;;;;;5051186;28;20491;-54
2024/03/17 01:25:21;;;;;;;17.52;6.40;;;4.00;99.90;;;;;;5049484;28;20049;-56
2024/03/17 01:27:46;;;;;;;16.48;6.95;;;4.00;99.90;;;;;;5053933;28;20025;-54
2024/03/17 01:30:12;;;;;;;15.77;6.30;;;4.00;99.90;;;;;;5052991;28;20490;-56
2024/03/17 01:32:38;;;;;;;18.77;6.72;;;4.00;99.90;;;;;;5052007;28;20071;-56
2024/03/17 01:35:05;;;;;;;17.52;6.57;;;4.00;99.90;;;;;;5052907;28;20028;-57
2024/03/17 01:37:31;;;;;;;15.13;8.05;;;4.00;99.90;;;;;;5052404;28;20033;-58
2024/03/17 01:39:58;;;;;;;15.75;6.10;;;3.90;99.90;;;;;;5051992;28;20070;-56
2024/03/17 01:42:23;;;;;;;9.98;5.95;;;3.90;99.90;;;;;;5051789;28;20033;-54
2024/03/17 01:44:50;;;;;;;19.40;6.50;;;3.90;99.90;;;;;;5050488;28;20027;-55
2024/03/17 01:47:18;;;;;;;13.13;6.65;;;3.90;99.90;;;;;;5055534;28;20016;-53
2024/03/17 01:49:47;;;;;;;18.35;7.05;;;3.80;99.90;;;;;;5046965;28;20120;-54
2024/03/17 01:52:14;;;;;;;13.90;7.38;;;3.80;99.90;;;;;;5054684;28;20037;-57
2024/03/17 01:54:40;;;;;;;14.48;6.82;;;3.80;99.90;;;;;;5051541;28;20471;-57
2024/03/17 01:57:06;;;;;;;12.20;6.18;;;3.80;99.90;;;;;;5054086;28;20037;-57
2024/03/17 01:59:32;;;;;;;17.70;6.85;;;3.80;99.90;;;;;;5045382;28;20119;-53
2024/03/17 02:01:58;;;;;;;14.38;6.85;;;3.80;99.90;;;;;;5047063;28;20375;-54
2024/03/17 02:04:23;;;;;;;12.07;7.00;;;3.70;99.90;;;;;;5052321;28;20040;-56
2024/03/17 02:06:49;;;;;;;17.27;7.10;;;3.70;99.90;;;;;;5051055;28;20048;-57
2024/03/17 02:09:15;;;;;;;14.60;7.15;;;3.70;99.90;;;;;;5051393;28;20516;-53
2024/03/17 02:11:40;;;;;;;15.13;7.45;;;3.70;99.90;;;;;;5049945;28;20024;-56
2024/03/17 02:14:07;;;;;;;14.18;8.48;;;3.70;99.90;;;;;;5049423;28;20056;-56
2024/03/17 02:16:33;;;;;;;19.58;8.02;;;3.70;99.90;;;;;;5051770;28;20067;-56
2024/03/17 02:18:59;;;;;;;24.63;6.95;;;3.60;99.90;;;;;;5051850;28;20493;-55
2024/03/17 02:21:28;;;;;;;12.85;7.18;;;3.60;99.90;;;;;;5051683;28;20048;-58
2024/03/17 02:23:55;;;;;;;20.50;9.20;;;3.60;99.90;;;;;;5051473;28;20406;-54
2024/03/17 02:26:22;;;;;;;21.52;8.88;;;3.70;99.90;;;;;;5046492;28;20028;-56
2024/03/17 02:28:47;;;;;;;18.55;9.27;;;3.60;99.90;;;;;;5050099;28;20473;-54
2024/03/17 02:31:15;;;;;;;19.90;8.55;;;3.60;99.90;;;;;;5050842;28;20031;-57
2024/03/17 02:33:42;;;;;;;22.55;9.60;;;3.60;99.90;;;;;;5050062;28;20054;-56
2024/03/17 02:36:09;;;;;;;20.90;10.13;;;3.60;99.90;;;;;;5051124;28;20376;-56
2024/03/17 02:41:19;;;;;;;16.00;9.07;;;3.60;99.90;;;;;;5043933;28;20043;-54
2024/03/17 02:43:45;;;;;;;20.30;9.00;;;3.60;99.90;;;;;;5051746;28;20100;-57
2024/03/17 02:46:12;;;;;;;14.82;8.57;;;3.60;99.90;;;;;;5050645;28;20033;-56
2024/03/17 02:48:44;;;;;;;26.08;9.20;;;3.60;99.90;;;;;;5051017;28;20024;-54
2024/03/17 02:51:11;;;;;;;15.13;8.73;;;3.60;99.90;;;;;;5045099;28;20017;-54
2024/03/17 02:53:37;;;;;;;22.02;9.10;;;3.50;99.90;;;;;;5049859;28;20025;-53
2024/03/17 02:56:03;;;;;;;22.13;8.25;;;3.50;99.90;;;;;;5054134;28;20382;-57
2024/03/17 02:58:28;;;;;;;19.52;8.80;;;3.50;99.90;;;;;;5050594;28;20043;-57
2024/03/17 03:00:54;;;;;;;16.80;8.10;;;3.40;99.90;;;;;;5053429;28;20480;-56
2024/03/17 03:03:19;;;;;;;18.77;8.55;;;3.40;99.90;;;;;;5051012;28;20031;-53
2024/03/17 03:05:45;;;;;;;21.42;9.05;;;3.40;99.90;;;;;;5050697;28;20124;-57
2024/03/17 03:08:11;;;;;;;18.20;9.15;;;3.40;99.90;;;;;;5049496;28;20103;-54
2024/03/17 03:10:37;;;;;;;18.98;9.82;;;3.30;99.90;;;;;;5050997;28;20082;-55
2024/03/17 03:13:03;;;;;;;20.02;8.50;;;3.30;99.90;;;;;;5048055;28;20036;-56
2024/03/17 03:15:32;;;;;;;19.55;9.23;;;3.30;99.90;;;;;;5049550;28;20375;-55
2024/03/17 03:17:58;;;;;;;23.52;10.20;;;3.30;99.90;;;;;;5052065;28;20029;-55
2024/03/17 03:20:23;;;;;;;22.92;10.25;;;3.20;99.90;;;;;;5050092;28;20032;-57
2024/03/17 03:22:49;;;;;;;22.15;10.13;;;3.20;99.90;;;;;;5050162;28;20457;-55
2024/03/17 03:25:14;;;;;;;29.63;10.45;;;3.10;99.90;;;;;;5047172;28;20032;-53
2024/03/17 03:27:40;;;;;;;18.20;9.13;;;3.10;99.90;;;;;;5049748;28;20155;-56
2024/03/17 03:30:08;;;;;;;20.77;9.45;;;3.10;99.90;;;;;;5053798;28;20094;-55
2024/03/17 03:32:34;;;;;;;22.33;9.98;;;3.00;99.90;;;;;;5049806;28;20021;-55
2024/03/17 03:34:59;;;;;;;18.55;10.20;;;3.00;99.90;;;;;;5050604;28;20375;-56
2024/03/17 03:37:25;;;;;;;19.83;9.75;;;3.10;99.90;;;;;;5041780;28;20075;-55
2024/03/17 03:39:51;;;;;;;22.98;9.02;;;3.10;99.90;;;;;;5045530;28;20029;-57
2024/03/17 03:42:17;;;;;;;25.42;9.00;;;3.10;99.90;;;;;;5052651;28;20513;-54
2024/03/17 03:44:43;;;;;;;21.45;8.85;;;3.10;99.90;;;;;;5054421;28;20510;-57
2024/03/17 03:47:08;;;;;;;22.52;9.43;;;3.10;99.90;;;;;;5055488;28;20074;-58
2024/03/17 03:49:34;;;;;;;23.58;8.45;;;3.10;99.90;;;;;;5052713;28;20429;-57
2024/03/17 03:52:00;;;;;;;19.13;9.45;;;3.00;99.90;;;;;;5056372;28;20060;-57
2024/03/17 03:54:25;;;;;;;17.35;9.13;;;3.00;99.90;;;;;;5062624;28;20395;-57
2024/03/17 03:56:51;;;;;;;20.48;9.18;;;3.00;99.90;;;;;;5054214;28;20805;-58
2024/03/17 03:59:16;;;;;;;17.35;8.38;;;2.90;99.90;;;;;;5054538;28;20486;-55
2024/03/17 04:01:42;;;;;;;26.17;9.07;;;2.90;99.90;;;;;;5054138;28;20025;-55
2024/03/17 04:04:08;;;;;;;20.08;8.93;;;2.90;99.90;;;;;;5056366;28;20024;-56
2024/03/17 04:06:33;;;;;;;20.95;8.18;;;2.90;99.90;;;;;;5053606;28;20125;-56
2024/03/17 04:08:59;;;;;;;27.52;10.52;;;2.90;99.90;;;;;;5052605;28;20455;-57
2024/03/17 04:11:24;;;;;;;26.30;9.00;;;2.90;99.90;;;;;;5052930;28;20372;-53
2024/03/17 04:13:51;;;;;;;16.75;9.38;;;2.90;99.90;;;;;;5053775;28;20029;-55
2024/03/17 04:16:16;;;;;;;18.15;9.02;;;2.90;99.90;;;;;;5046740;28;20029;-56
2024/03/17 04:18:42;;;;;;;21.10;9.45;;;2.90;99.90;;;;;;5053652;28;20550;-57
2024/03/17 04:21:07;;;;;;;21.38;10.02;;;2.90;99.90;;;;;;5053628;28;20402;-56
2024/03/17 04:23:33;;;;;;;17.70;9.13;;;2.90;99.90;;;;;;5051291;28;20056;-54
2024/03/17 04:26:00;;;;;;;23.60;10.05;;;2.90;99.90;;;;;;5054052;28;20017;-56
2024/03/17 04:28:26;;;;;;;20.05;9.63;;;2.90;99.90;;;;;;5053476;28;20033;-56
2024/03/17 04:30:51;;;;;;;23.50;10.48;;;2.90;99.90;;;;;;5053956;28;20144;-57
2024/03/17 04:33:17;;;;;;;18.60;9.00;;;2.90;99.90;;;;;;5053396;28;20072;-55
2024/03/17 04:35:43;;;;;;;19.98;10.20;;;2.90;99.90;;;;;;5056483;28;20041;-53
2024/03/17 04:38:09;;;;;;;20.83;10.13;;;2.90;99.90;;;;;;5049064;28;20029;-56
2024/03/17 04:40:40;;;;;;;18.48;9.13;;;2.90;99.90;;;;;;5053345;28;20036;-57
2024/03/17 04:43:05;;;;;;;21.73;9.93;;;2.90;99.90;;;;;;5054042;28;20652;-56
2024/03/17 04:45:31;;;;;;;27.60;10.68;;;2.80;99.90;;;;;;5046235;28;20071;-55
2024/03/17 04:47:56;;;;;;;24.30;10.23;;;2.80;99.90;;;;;;5053382;28;20064;-55
2024/03/17 04:50:22;;;;;;;20.65;10.63;;;2.80;99.90;;;;;;5058703;28;20071;-57
2024/03/17 04:52:48;;;;;;;21.13;9.85;;;2.80;99.90;;;;;;5053277;28;20024;-56
2024/03/17 04:55:16;;;;;;;23.40;9.85;;;2.80;99.90;;;;;;5055983;28;20029;-55
2024/03/17 04:57:43;;;;;;;19.80;10.27;;;2.80;99.90;;;;;;5047803;28;20037;-56
2024/03/17 05:00:11;;;;;;;21.50;9.38;;;2.80;99.90;;;;;;5053592;28;20028;-57
2024/03/17 05:02:37;;;;;;;20.35;10.25;;;2.80;99.90;;;;;;5053042;28;20032;-57
2024/03/17 05:05:05;;;;;;;22.55;9.38;;;2.80;99.90;;;;;;5046004;28;20071;-56
2024/03/17 05:07:31;;;;;;;20.33;8.93;;;2.80;99.90;;;;;;5045783;28;20025;-53
2024/03/17 05:09:56;;;;;;;18.40;9.38;;;2.80;99.90;;;;;;5044155;28;20048;-53
2024/03/17 05:12:22;;;;;;;19.60;9.40;;;2.80;99.90;;;;;;5056045;28;21198;-53
2024/03/17 05:14:47;;;;;;;29.55;9.00;;;2.70;99.90;;;;;;5053347;28;20040;-55
2024/03/17 05:17:13;;;;;;;18.92;10.32;;;2.70;99.90;;;;;;5052731;28;20081;-56
2024/03/17 05:19:38;;;;;;;20.23;10.15;;;2.70;99.90;;;;;;5052797;28;20029;-56
2024/03/17 05:22:04;;;;;;;24.95;11.02;;;2.70;99.90;;;;;;5052734;28;20407;-53
2024/03/17 05:24:29;;;;;;;23.92;10.23;;;2.70;99.90;;;;;;5047842;28;20051;-56
2024/03/17 05:26:55;;;;;;;19.27;8.88;;;2.80;99.90;;;;;;5052698;28;20495;-55
2024/03/17 05:29:22;;;;;;;15.05;8.25;;;2.90;99.90;;;;;;5047962;28;20044;-57
2024/03/17 05:31:48;;;;;;;20.67;9.60;;;2.90;99.90;;;;;;5051005;28;20122;-56
2024/03/17 05:34:13;;;;;;;18.88;8.95;;;2.90;99.90;;;;;;5048755;28;20033;-55
2024/03/17 05:36:39;;;;;;;18.30;8.68;;;2.90;99.90;;;;;;5052955;28;20466;-53
2024/03/17 05:39:05;;;;;;;20.35;8.75;;;3.00;99.90;;;;;;5051580;28;20118;-54
2024/03/17 05:41:30;;;;;;;17.70;9.57;;;3.00;99.90;;;;;;5050884;28;20025;-53
2024/03/17 05:43:58;;;;;;;22.58;9.98;;;3.00;99.90;;;;;;5051978;28;20063;-52
2024/03/17 05:46:25;;;;;;;18.63;9.43;;;3.20;99.90;;;;;;5055602;28;20374;-54
2024/03/17 05:48:51;;;;;;;18.05;9.50;;;3.30;99.90;;;;;;5052483;28;20487;-52
2024/03/17 05:51:16;;;;;;;21.83;9.15;;;3.30;99.90;;;;;;5047909;28;20083;-53
2024/03/17 05:53:45;;;;;;;21.27;9.05;;;3.40;99.90;;;;;;5050992;28;20400;-54
2024/03/17 05:56:12;;;;;;;16.13;8.20;;;3.40;99.90;;;;;;5051683;28;20070;-55
2024/03/17 05:58:38;;;;;;;25.10;9.50;;;3.50;99.90;;;;;;5049972;28;20025;-54
2024/03/17 06:01:06;;;;;;;20.92;8.82;;;3.70;99.90;;;;;;5050869;28;20036;-53
2024/03/17 06:03:35;;;;;;;23.02;9.27;;;3.70;99.90;;;;;;5049926;28;20028;-54
2024/03/17 06:06:01;;;;;;;19.17;9.05;;;3.80;99.90;;;;;;5052019;28;20510;-54
2024/03/17 06:08:27;;;;;;;19.52;8.60;;;3.80;99.90;;;;;;5066746;28;20056;-57
2024/03/17 06:10:53;;;;;;;21.52;8.77;;;3.90;99.90;;;;;;5045435;28;20036;-53
2024/03/17 06:13:18;;;;;;;15.30;7.85;;;4.00;99.90;;;;;;5051325;28;20029;-55
2024/03/17 06:15:47;;;;;;;16.00;7.88;;;4.10;99.90;;;;;;5050990;28;20025;-55
2024/03/17 06:18:14;;;;;;;14.30;7.13;;;4.10;99.90;;;;;;5050783;28;20399;-57
2024/03/17 06:20:42;;;;;;;18.65;8.82;;;4.30;99.90;;;;;;5052190;28;20123;-53
2024/03/17 06:23:08;;;;;;;14.70;8.10;;;4.40;99.90;;;;;;5051849;28;20527;-53
2024/03/17 06:25:45;;;;;;;16.98;8.23;;;4.50;99.90;;;;;;5055057;28;20028;-62
2024/03/17 06:28:13;;;;;;;16.88;7.55;;;4.70;99.90;;;;;;5049872;28;20422;-57
2024/03/17 06:30:40;;;;;;;12.45;6.00;;;4.80;99.90;;;;;;5051423;28;20036;-53
2024/03/17 06:33:06;;;;;;;12.93;6.60;;;5.00;99.90;;;;;;5051590;28;20445;-58
2024/03/17 06:35:31;;;;;;;10.75;6.65;;;5.20;99.90;;;;;;5049066;28;20037;-57
2024/03/17 06:38:02;;;;;;;14.15;6.82;;;5.30;99.90;;;;;;5049631;28;20040;-57
2024/03/17 06:40:28;;;;;;;13.65;6.13;;;5.40;99.90;;;;;;5049608;28;20043;-56
2024/03/17 06:42:54;;;;;;;11.95;6.40;;;5.50;99.90;;;;;;5050999;28;20017;-56
2024/03/17 06:45:23;;;;;;;11.65;6.70;;;5.70;99.90;;;;;;5049401;28;20079;-57
2024/03/17 06:47:48;;;;;;;10.63;5.97;;;5.80;99.90;;;;;;5050026;28;20045;-56
2024/03/17 06:50:14;;;;;;;14.77;5.93;;;5.90;99.90;;;;;;5050869;28;20056;-54
2024/03/17 06:52:40;;;;;;;12.82;6.50;;;5.90;99.90;;;;;;5044323;28;20404;-57
2024/03/17 06:55:06;;;;;;;12.48;5.80;;;6.10;99.90;;;;;;5050471;28;20063;-58
2024/03/17 06:57:33;;;;;;;13.75;6.10;;;6.20;99.90;;;;;;5049261;28;20112;-58
2024/03/17 06:59:59;;;;;;;9.68;4.63;;;6.70;99.90;;;;;;5054098;28;20029;-55
2024/03/17 07:02:25;;;;;;;10.13;5.20;;;7.20;99.90;;;;;;5050823;28;20029;-55
2024/03/17 07:04:50;;;;;;;10.32;5.88;;;8.10;99.90;;;;;;5055036;28;20032;-57
2024/03/17 07:07:16;;;;;;;7.47;4.63;;;9.30;99.90;;;;;;5063225;28;20422;-57
2024/03/17 07:09:42;;;;;;;10.27;5.07;;;10.40;99.90;;;;;;5041125;28;20072;-58
2024/03/17 07:12:08;;;;;;;8.73;4.90;;;11.30;99.90;;;;;;5050127;28;20032;-59
2024/03/17 07:14:34;;;;;;;7.90;4.65;;;12.30;99.90;;;;;;5030839;28;20026;-59
2024/03/17 07:17:00;;;;;;;9.07;4.50;;;12.50;99.90;;;;;;5044927;28;20021;-58
2024/03/17 07:19:25;;;;;;;9.13;5.05;;;13.00;99.90;;;;;;5042724;28;20092;-58
2024/03/17 07:21:51;;;;;;;8.25;4.38;;;12.40;99.90;;;;;;5042815;28;20364;-58
2024/03/17 07:24:16;;;;;;;5.78;4.13;;;11.70;99.90;;;;;;5051025;28;20025;-56
2024/03/17 07:26:42;;;;;;;9.32;4.28;;;11.60;99.90;;;;;;5045213;28;20724;-58
2024/03/17 07:29:08;;;;;;;8.98;5.20;;;11.10;99.90;;;;;;5037572;28;20471;-58
2024/03/17 07:31:34;;;;;;;6.82;3.83;;;10.40;99.90;;;;;;5050914;28;20017;-53
2024/03/17 07:33:59;;;;;;;8.00;4.43;;;9.80;99.90;;;;;;5050432;28;20107;-55
2024/03/17 07:36:25;;;;;;;17.42;4.68;;;9.70;99.90;;;;;;5042089;28;20511;-56
2024/03/17 07:38:52;;;;;;;10.27;5.03;;;9.50;99.90;;;;;;5045572;28;20029;-58
2024/03/17 07:41:19;;;;;;;9.13;4.90;;;9.30;99.90;;;;;;5050889;28;20036;-54
2024/03/17 07:43:45;;;;;;;10.52;4.82;;;9.40;99.90;;;;;;5039287;28;20025;-58
2024/03/17 07:46:12;;;;;;;11.35;5.80;;;9.20;99.90;;;;;;5051218;28;20493;-56
2024/03/17 07:48:41;;;;;;;8.45;4.47;;;9.30;99.90;;;;;;5050864;28;20445;-57
2024/03/17 07:51:09;;;;;;;7.43;4.18;;;9.40;99.90;;;;;;5041996;28;20025;-56
2024/03/17 07:53:37;;;;;;;9.15;4.88;;;9.40;99.90;;;;;;5050653;28;20031;-58
2024/03/17 07:56:09;;;;;;;8.43;4.78;;;9.40;99.90;;;;;;5037620;28;20033;-57
2024/03/17 07:58:36;;;;;;;12.20;4.63;;;9.40;99.90;;;;;;5050840;28;20108;-55
2024/03/17 08:01:03;;;;;;;9.27;4.45;;;9.60;99.90;;;;;;5050646;28;20024;-57
2024/03/17 08:03:31;;;;;;;7.72;4.25;;;9.70;99.90;;;;;;5041407;28;20029;-56
2024/03/17 08:05:57;;;;;;;10.18;4.35;;;9.90;99.90;;;;;;5050516;28;20064;-58
2024/03/17 08:08:23;;;;;;;6.38;3.42;;;10.20;99.90;;;;;;5045279;28;20033;-58
2024/03/17 08:10:49;;;;;;;9.35;4.40;;;10.30;99.90;;;;;;5050570;28;20561;-54
2024/03/17 08:13:16;;;;;;;8.15;4.38;;;10.30;99.90;;;;;;5050535;28;20017;-56
2024/03/17 08:15:43;;;;;;;5.43;3.45;;;10.30;99.90;;;;;;5050770;28;20024;-57
2024/03/17 08:18:09;;;;;;;10.20;3.63;;;10.30;99.90;;;;;;5050519;28;20044;-56
2024/03/17 08:20:46;;;;;;;11.90;4.22;;;10.40;99.90;;;;;;5045351;28;20025;-54
2024/03/17 08:23:12;;;;;;;4.88;3.50;;;10.60;99.90;;;;;;5048552;28;20086;-57
2024/03/17 08:25:37;;;;;;;9.48;3.40;;;10.70;99.90;;;;;;5055817;28;20536;-55
2024/03/17 08:28:03;;;;;;;6.15;3.67;;;10.70;99.90;;;;;;5049453;28;20033;-54
2024/03/17 08:30:30;;;;;;;5.32;3.42;;;10.80;99.90;;;;;;5054022;28;20027;-57
2024/03/17 08:32:56;;;;;;;5.30;2.97;;;10.80;99.90;;;;;;5052906;28;20471;-57
2024/03/17 08:35:22;;;;;;;5.50;3.58;;;11.10;99.90;;;;;;5052819;28;20663;-56
2024/03/17 08:37:47;;;;;;;11.10;3.90;;;11.50;99.90;;;;;;5051578;28;20033;-56
2024/03/17 08:40:13;;;;;;;5.30;3.20;;;11.70;99.90;;;;;;5055120;28;20039;-56
2024/03/17 08:42:39;;;;;;;6.15;3.30;;;11.80;99.90;;;;;;5052311;28;20028;-58
2024/03/17 08:45:05;;;;;;;7.13;2.80;;;11.90;99.90;;;;;;5052050;28;20040;-57
2024/03/17 08:47:31;;;;;;;3.60;2.72;;;12.10;99.90;;;;;;5052988;28;20033;-56
2024/03/17 08:49:57;;;;;;;7.90;3.30;;;11.90;99.90;;;;;;5050866;28;20965;-57
2024/03/17 08:52:23;;;;;;;6.13;3.22;;;11.90;99.90;;;;;;5052824;28;20071;-56
2024/03/17 08:54:51;;;;;;;5.18;2.97;;;12.00;99.90;;;;;;5052115;28;20053;-58
2024/03/17 08:57:17;;;;;;;4.95;3.03;;;12.10;99.90;;;;;;5053073;28;20029;-57
2024/03/17 08:59:42;;;;;;;5.00;2.80;;;12.30;99.90;;;;;;5050306;28;20445;-58
2024/03/17 09:02:13;;;;;;;4.93;2.90;;;12.60;99.90;;;;;;5052286;28;20060;-58
2024/03/17 09:04:39;;;;;;;8.00;2.80;;;12.70;99.90;;;;;;5052427;28;20131;-59
2024/03/17 09:07:05;;;;;;;3.90;2.83;;;12.60;99.90;;;;;;5052567;28;20021;-58
2024/03/17 09:09:30;;;;;;;5.10;2.97;;;12.50;99.90;;;;;;5052149;28;20086;-58
2024/03/17 09:11:56;;;;;;;7.03;2.58;;;12.40;99.90;;;;;;5047763;28;20029;-57
2024/03/17 09:14:21;;;;;;;7.85;2.20;;;12.20;99.90;;;;;;5052506;28;20131;-58
2024/03/17 09:16:48;;;;;;;4.90;2.80;;;12.10;99.90;;;;;;5052908;28;20115;-58
2024/03/17 09:19:13;;;;;;;5.05;3.00;;;12.20;99.90;;;;;;5051563;28;20032;-58
2024/03/17 09:21:39;;;;;;;8.43;2.72;;;12.10;99.90;;;;;;5048709;28;20029;-58
2024/03/17 09:24:09;;;;;;;7.03;2.90;;;12.10;99.90;;;;;;5052380;28;20039;-62
2024/03/17 09:26:35;;;;;;;7.13;3.50;;;12.30;99.90;;;;;;5052865;28;20048;-58
2024/03/17 09:29:01;;;;;;;6.65;2.53;;;12.60;99.90;;;;;;5048318;28;20021;-57
2024/03/17 09:31:27;;;;;;;8.05;3.53;;;12.90;99.90;;;;;;5050601;28;20032;-56
2024/03/17 09:33:53;;;;;;;3.38;2.13;;;13.50;99.90;;;;;;5050514;28;20037;-59
2024/03/17 09:36:18;;;;;;;2.45;2.22;;;14.20;99.90;;;;;;5050548;28;20095;-59
2024/03/17 09:38:46;;;;;;;4.18;2.65;;;14.60;99.90;;;;;;5052635;28;20390;-59
2024/03/17 09:41:24;;;;;;;7.03;2.78;;;14.60;99.90;;;;;;5051957;28;20029;-58
2024/03/17 09:43:53;;;;;;;4.32;2.75;;;14.70;99.90;;;;;;5052480;28;20499;-57
2024/03/17 09:46:19;;;;;;;4.47;2.78;;;14.30;99.90;;;;;;5050346;28;20025;-59
2024/03/17 09:48:45;;;;;;;4.28;2.70;;;14.20;99.90;;;;;;5053452;28;20479;-59
2024/03/17 09:51:19;;;;;;;6.82;2.65;;;14.00;99.90;;;;;;5051716;28;20021;-58
2024/03/17 09:53:45;;;;;;;5.72;2.75;;;13.60;99.90;;;;;;5047957;28;20056;-58
2024/03/17 09:56:13;;;;;;;4.63;2.78;;;13.70;99.90;;;;;;5052187;28;20051;-57
2024/03/17 09:58:39;;;;;;;3.92;2.20;;;13.70;99.90;;;;;;5052300;28;20092;-56
2024/03/17 10:01:05;;;;;;;4.63;2.53;;;13.40;99.90;;;;;;5050268;28;20028;-58
2024/03/17 10:03:44;;;;;;;5.47;2.90;;;13.50;99.90;;;;;;5051152;28;20398;-54
2024/03/17 10:06:11;;;;;;;7.25;3.17;;;13.70;99.90;;;;;;5052520;28;20074;-57
2024/03/17 10:08:41;;;;;;;4.78;2.50;;;13.70;99.90;;;;;;5050788;28;20025;-56
2024/03/17 10:11:08;;;;;;;5.40;2.38;;;13.80;99.90;;;;;;5048698;28;20048;-57
2024/03/17 10:13:33;;;;;;;5.18;2.63;;;14.20;99.90;;;;;;5050424;28;20040;-59
2024/03/17 10:15:59;;;;;;;5.68;2.80;;;14.80;99.90;;;;;;5041999;28;20044;-58
2024/03/17 10:18:25;;;;;;;5.95;2.15;;;15.00;99.90;;;;;;5048211;28;20390;-60
2024/03/17 10:20:55;;;;;;;4.75;2.55;;;15.30;99.90;;;;;;5046613;28;20037;-58
2024/03/17 10:23:20;;;;;;;4.38;2.50;;;15.60;99.90;;;;;;5065402;28;20509;-59
2024/03/17 10:25:46;;;;;;;2.40;1.95;;;15.70;99.50;;;;;;5049132;28;20021;-57
2024/03/17 10:28:13;;;;;;;6.05;2.15;;;15.70;99.90;;;;;;5051060;28;20108;-57
2024/03/17 10:30:40;;;;;;;11.63;3.10;;;15.60;99.10;;;;;;5048520;28;20116;-56
2024/03/17 10:33:08;;;;;;;8.23;2.85;;;15.40;98.50;;;;;;5050335;28;20104;-55
2024/03/17 10:35:42;;;;;;;7.78;2.97;;;15.20;99.50;;;;;;5051688;28;20032;-58
2024/03/17 10:38:09;;;;;;;3.53;2.35;;;15.20;99.30;;;;;;5045233;28;20033;-57
2024/03/17 10:40:38;;;;;;;4.57;2.33;;;14.90;99.90;;;;;;5046519;28;20028;-58
2024/03/17 10:43:05;;;;;;;3.50;2.30;;;14.70;99.90;;;;;;5049095;28;20112;-57
2024/03/17 10:45:38;;;;;;;2.80;2.25;;;14.70;99.90;;;;;;5050427;28;20059;-58
2024/03/17 10:48:08;;;;;;;2.40;2.03;;;14.70;99.90;;;;;;5043666;28;20024;-58
2024/03/17 10:50:37;;;;;;;4.72;2.08;;;14.40;99.90;;;;;;5047906;28;20032;-54
2024/03/17 10:53:10;;;;;;;5.00;1.98;;;14.40;99.90;;;;;;5049231;28;20025;-57
2024/03/17 10:55:46;;;;;;;4.25;2.53;;;14.60;99.90;;;;;;5047581;28;20505;-57
2024/03/17 10:58:33;;;;;;;7.43;2.78;;;14.70;99.90;;;;;;5050357;28;20029;-58
2024/03/17 11:01:02;;;;;;;5.03;2.38;;;14.70;99.90;;;;;;5049382;28;20044;-56
2024/03/17 11:03:31;;;;;;;5.72;2.40;;;14.70;99.90;;;;;;5046587;28;20033;-59
2024/03/17 11:05:58;;;;;;;3.70;2.38;;;14.80;99.90;;;;;;5047736;28;20449;-59
2024/03/17 11:08:25;;;;;;;3.70;2.10;;;14.70;99.90;;;;;;5048988;28;20037;-57
2024/03/17 11:10:54;;;;;;;3.38;2.28;;;14.60;99.90;;;;;;5047445;28;20055;-56
2024/03/17 11:13:27;;;;;;;4.60;2.85;;;14.80;99.90;;;;;;5052558;28;20073;-56
2024/03/17 11:15:55;;;;;;;5.63;2.67;;;15.10;99.90;;;;;;5049152;28;20064;-56
2024/03/17 11:18:21;;;;;;;3.67;2.85;;;15.00;99.90;;;;;;5047529;28;20040;-57
2024/03/17 11:20:56;;;;;;;3.78;2.63;;;15.10;99.90;;;;;;5049681;28;20506;-57
2024/03/17 11:23:32;;;;;;;6.22;2.22;;;15.30;99.90;;;;;;5045943;28;20029;-56
2024/03/17 11:25:59;;;;;;;4.90;2.45;;;15.50;99.90;;;;;;5043599;28;20387;-57
2024/03/17 11:28:46;;;;;;;6.70;1.92;;;15.70;99.90;;;;;;5046905;28;20033;-56
2024/03/17 11:31:32;;;;;;;6.93;2.60;;;15.70;98.90;;;;;;5045609;28;20037;-56
2024/03/17 11:34:00;;;;;;;4.72;2.10;;;15.30;98.90;;;;;;5047633;28;20036;-57
2024/03/17 11:36:28;;;;;;;5.45;2.00;;;15.30;99.90;;;;;;5048229;28;20053;-57
2024/03/17 11:39:16;;;;;;;12.43;4.35;;;15.50;99.90;;;;;;5046520;28;20114;-57
2024/03/17 11:41:47;;;;;;;35.25;16.73;;;15.50;99.90;;;;;;5047060;28;20036;-57
2024/03/17 11:44:29;;;;;;;9.63;4.07;;;15.60;99.90;;;;;;5046546;28;20052;-58
2024/03/17 11:47:03;;;;;;;17.00;8.63;;;15.50;99.80;;;;;;5048726;28;20555;-60
2024/03/17 11:49:29;;;;;;;4.82;2.40;;;15.70;99.80;;;;;;5043252;28;20533;-57
2024/03/17 11:52:08;;;;;;;6.28;2.40;;;16.00;99.50;;;;;;5048072;28;20149;-57
2024/03/17 11:54:38;;;;;;;7.90;2.72;;;16.20;99.20;;;;;;5047501;28;20068;-57
2024/03/17 11:57:06;;;;;;;8.57;4.20;;;15.90;99.00;;;;;;5048223;28;20032;-57
2024/03/17 11:59:32;;;;;;;6.43;2.28;;;15.70;99.00;;;;;;5046481;28;20174;-57
2024/03/17 12:01:58;;;;;;;5.47;2.53;;;15.80;98.50;;;;;;5050643;28;20033;-57
2024/03/17 12:04:24;;;;;;;5.53;2.42;;;15.80;99.10;;;;;;5051733;28;20040;-57
2024/03/17 12:06:52;;;;;;;4.68;2.30;;;15.80;98.90;;;;;;5052680;28;20021;-57
2024/03/17 12:09:21;;;;;;;3.63;2.25;;;15.70;98.80;;;;;;5052172;28;20074;-57
2024/03/17 12:12:13;;;;;;;5.63;2.88;;;15.50;98.50;;;;;;5049041;28;20021;-59
2024/03/17 12:14:39;;;;;;;3.83;2.40;;;15.20;98.50;;;;;;5048326;28;20025;-55
2024/03/17 12:17:07;;;;;;;5.88;2.67;;;15.20;98.90;;;;;;5052321;28;20029;-56
2024/03/17 12:19:34;;;;;;;2.72;2.10;;;15.10;99.40;;;;;;5051798;28;20063;-55
2024/03/17 12:22:01;;;;;;;5.43;2.80;;;15.20;99.70;;;;;;5051362;28;20025;-58
2024/03/17 12:24:28;;;;;;;2.58;1.88;;;15.40;99.90;;;;;;5049057;28;20037;-57
2024/03/17 12:26:55;;;;;;;3.13;1.98;;;15.50;99.50;;;;;;5046710;28;20040;-57
2024/03/17 12:29:40;;;;;;;5.13;2.17;;;15.60;99.80;;;;;;5052123;28;20033;-57
2024/03/17 12:32:24;;;;;;;5.10;2.33;;;15.30;99.90;;;;;;5050385;28;20467;-57
2024/03/17 12:34:57;;;;;;;3.20;2.40;;;15.30;99.30;;;;;;5051407;28;20094;-56
2024/03/17 12:37:33;;;;;;;5.32;2.72;;;15.40;99.40;;;;;;5050849;28;20572;-55
2024/03/17 12:40:00;;;;;;;4.68;2.10;;;15.30;99.90;;;;;;5048125;28;20044;-58
2024/03/17 12:42:27;;;;;;;4.28;2.03;;;15.30;99.90;;;;;;5051780;28;20041;-58
2024/03/17 12:44:54;;;;;;;3.92;2.58;;;15.30;99.90;;;;;;5049079;28;20059;-58
2024/03/17 12:47:28;;;;;;;5.72;2.10;;;15.30;99.20;;;;;;5052514;28;20391;-57
2024/03/17 12:49:56;;;;;;;5.35;2.50;;;15.10;99.90;;;;;;5051641;28;20024;-57